Time;durP1;ratioP1;P1;durP2;ratioP2;P2;SDS_P1;SDS_P2;PMS_P1;PMS_P2;Temp;Humidity;BMP_temperature;BMP_pressure;BME280_temperature;BME280_humidity;BME280_pressure;Samples;Min_cycle;Max_cycle;Signal;HPM_P1;HPM_P2
2021/04/30 00:00:49;;;;;;;26.33;15.03;;;;;;;5.51;100.00;99942.63;4982355;28;20202;-72
2021/04/30 00:03:15;;;;;;;27.53;15.30;;;;;;;5.55;99.30;99952.03;4983660;28;20213;-72
2021/04/30 00:05:41;;;;;;;28.17;16.00;;;;;;;5.54;98.57;99949.47;4986882;28;20272;-72
2021/04/30 00:08:08;;;;;;;26.57;15.20;;;;;;;5.44;99.61;99952.22;4984375;28;20793;-72
2021/04/30 00:10:34;;;;;;;27.73;14.97;;;;;;;5.27;100.00;99947.31;4984346;28;20260;-72
2021/04/30 00:13:00;;;;;;;25.00;13.27;;;;;;;5.16;100.00;99953.53;4984932;28;20272;-72
2021/04/30 00:15:26;;;;;;;23.10;13.90;;;;;;;5.05;100.00;99957.13;4978891;28;20702;-72
2021/04/30 00:17:52;;;;;;;24.00;13.80;;;;;;;4.95;100.00;99962.44;4982495;28;20212;-72
2021/04/30 00:20:18;;;;;;;24.37;14.03;;;;;;;4.86;100.00;99966.84;4981147;28;20209;-72
2021/04/30 00:22:44;;;;;;;22.20;13.10;;;;;;;4.81;100.00;99966.03;4981588;28;20202;-71
2021/04/30 00:25:12;;;;;;;23.30;13.63;;;;;;;4.69;100.00;99969.63;4982596;28;20403;-72
2021/04/30 00:27:38;;;;;;;22.53;13.27;;;;;;;4.69;100.00;99969.63;4983211;28;20216;-72
2021/04/30 00:30:06;;;;;;;22.97;12.73;;;;;;;4.61;100.00;99976.63;4985134;28;20288;-72
2021/04/30 00:32:35;;;;;;;20.93;13.17;;;;;;;4.56;100.00;99981.00;4982117;28;20645;-72
2021/04/30 00:35:01;;;;;;;23.70;13.20;;;;;;;4.52;100.00;99976.72;4977643;28;20300;-72
2021/04/30 00:37:27;;;;;;;21.50;13.70;;;;;;;4.53;100.00;99981.88;4981686;28;20615;-72
2021/04/30 00:39:54;;;;;;;23.13;12.90;;;;;;;4.57;100.00;99984.44;4978223;28;20205;-74
2021/04/30 00:42:20;;;;;;;21.17;13.13;;;;;;;4.55;100.00;99990.44;4983693;28;20294;-72
2021/04/30 00:44:47;;;;;;;21.87;13.07;;;;;;;4.50;100.00;99986.22;4986737;28;20252;-72
2021/04/30 00:47:27;;;;;;;25.10;14.83;;;;;;;4.46;100.00;99987.13;4984138;28;20897;-72
2021/04/30 00:49:53;;;;;;;22.37;13.30;;;;;;;4.37;100.00;99998.41;4981077;28;20665;-72
2021/04/30 00:52:19;;;;;;;27.33;13.67;;;;;;;4.34;100.00;99991.56;4985685;28;20201;-72
2021/04/30 00:54:45;;;;;;;22.27;13.27;;;;;;;4.28;100.00;99991.63;4983079;28;20229;-72
2021/04/30 00:57:12;;;;;;;22.00;13.80;;;;;;;4.18;100.00;100006.31;4979103;28;20219;-72
2021/04/30 00:59:39;;;;;;;20.43;13.53;;;;;;;4.10;100.00;99999.56;4982429;28;20210;-72
2021/04/30 01:02:05;;;;;;;20.90;11.43;;;;;;;4.05;100.00;100003.91;4975143;28;20202;-72
2021/04/30 01:04:31;;;;;;;19.97;12.43;;;;;;;3.97;100.00;99996.22;4974937;28;20214;-72
2021/04/30 01:06:57;;;;;;;18.93;11.87;;;;;;;3.97;100.00;100004.84;4977266;28;20244;-72
2021/04/30 01:09:23;;;;;;;20.93;11.93;;;;;;;3.94;100.00;100004.84;4984530;28;20643;-72
2021/04/30 01:11:49;;;;;;;19.93;11.60;;;;;;;3.88;100.00;100009.22;4983195;28;20203;-72
2021/04/30 01:14:16;;;;;;;23.67;12.30;;;;;;;3.87;100.00;100008.34;4980165;28;20206;-72
2021/04/30 01:16:42;;;;;;;21.73;11.77;;;;;;;3.82;100.00;100004.09;4981704;28;20226;-72
2021/04/30 01:19:09;;;;;;;17.93;11.60;;;;;;;3.80;100.00;100006.69;4979687;28;20666;-72
2021/04/30 01:21:35;;;;;;;23.77;11.63;;;;;;;3.77;100.00;100017.88;4985905;28;20205;-72
2021/04/30 01:24:02;;;;;;;18.27;11.13;;;;;;;3.75;100.00;100016.19;4982154;28;20888;-72
2021/04/30 01:26:28;;;;;;;19.53;11.57;;;;;;;3.68;100.00;100023.13;4987968;28;20221;-72
2021/04/30 01:28:54;;;;;;;19.67;11.37;;;;;;;3.67;100.00;100017.97;4984849;28;20236;-72
2021/04/30 01:31:20;;;;;;;18.43;11.50;;;;;;;3.62;100.00;100028.31;4983268;28;20196;-72
2021/04/30 01:33:54;;;;;;;20.33;12.33;;;;;;;3.64;100.00;100031.75;4983183;28;20225;-72
2021/04/30 01:36:20;;;;;;;22.40;12.07;;;;;;;3.65;100.00;100023.13;4982188;28;20220;-72
2021/04/30 01:38:46;;;;;;;20.90;12.37;;;;;;;3.67;100.00;100034.28;4975467;28;20221;-72
2021/04/30 01:41:13;;;;;;;22.17;12.20;;;;;;;3.71;100.00;100041.16;4978506;28;20206;-72
2021/04/30 01:43:38;;;;;;;19.23;11.70;;;;;;;3.74;100.00;100035.94;4985179;28;20213;-71
2021/04/30 01:46:05;;;;;;;20.47;12.03;;;;;;;3.74;100.00;100038.53;4983053;28;20316;-72
2021/04/30 01:48:33;;;;;;;19.60;12.97;;;;;;;3.76;100.00;100043.69;4985110;28;20205;-72
2021/04/30 01:51:00;;;;;;;19.87;11.93;;;;;;;3.78;100.00;100040.22;4987056;28;20263;-72
2021/04/30 01:53:28;;;;;;;19.13;11.53;;;;;;;3.79;100.00;100034.19;4978450;28;20284;-72
2021/04/30 01:55:55;;;;;;;20.70;12.30;;;;;;;3.81;100.00;100041.91;4977571;28;20222;-72
2021/04/30 01:58:23;;;;;;;19.97;12.43;;;;;;;3.87;100.00;100043.59;4982928;28;20197;-72
2021/04/30 02:00:50;;;;;;;20.20;12.27;;;;;;;3.88;100.00;100043.59;4978633;28;20274;-72
2021/04/30 02:03:16;;;;;;;19.30;12.03;;;;;;;3.94;100.00;100050.41;4982101;28;20201;-72
2021/04/30 02:05:43;;;;;;;19.77;12.43;;;;;;;3.95;100.00;100047.81;4977750;28;20266;-72
2021/04/30 02:08:10;;;;;;;20.40;12.33;;;;;;;3.98;100.00;100052.13;4978661;28;20551;-72
2021/04/30 02:10:37;;;;;;;22.37;12.40;;;;;;;4.03;100.00;100054.63;4982685;28;20202;-72
2021/04/30 02:13:05;;;;;;;22.67;12.70;;;;;;;4.06;100.00;100058.03;4983064;28;20688;-72
2021/04/30 02:15:34;;;;;;;18.50;11.63;;;;;;;4.10;100.00;100062.34;4979929;28;20222;-72
2021/04/30 02:18:00;;;;;;;20.03;11.83;;;;;;;4.13;100.00;100054.56;4984531;28;20273;-72
2021/04/30 02:20:26;;;;;;;18.83;12.07;;;;;;;4.17;100.00;100052.81;4986763;28;20563;-72
2021/04/30 02:22:52;;;;;;;20.67;12.60;;;;;;;4.20;100.00;100051.91;4983227;28;20204;-72
2021/04/30 02:25:20;;;;;;;19.60;11.70;;;;;;;4.21;100.00;100051.91;4980144;28;20237;-71
2021/04/30 02:27:47;;;;;;;21.27;13.10;;;;;;;4.19;100.00;100043.34;4983904;28;20244;-72
2021/04/30 02:30:15;;;;;;;19.90;12.40;;;;;;;4.22;100.00;100057.91;4987029;28;20563;-72
2021/04/30 02:32:42;;;;;;;23.87;12.23;;;;;;;4.25;100.00;100060.47;4978151;28;20201;-72
2021/04/30 02:35:11;;;;;;;19.60;12.03;;;;;;;4.25;100.00;100060.47;4976800;28;20217;-72
2021/04/30 02:37:38;;;;;;;21.97;13.53;;;;;;;4.24;100.00;100064.78;4978785;28;20225;-72
2021/04/30 02:40:05;;;;;;;22.37;12.13;;;;;;;4.23;100.00;100065.66;4986110;28;20598;-72
2021/04/30 02:42:31;;;;;;;20.70;12.73;;;;;;;4.26;100.00;100060.47;4981305;28;20224;-72
2021/04/30 02:45:00;;;;;;;20.67;12.77;;;;;;;4.25;100.00;100058.75;4981282;28;20233;-72
2021/04/30 02:47:30;;;;;;;20.03;12.67;;;;;;;4.28;100.00;100069.03;4979902;28;20271;-71
2021/04/30 02:49:57;;;;;;;22.30;12.77;;;;;;;4.31;100.00;100074.19;4979866;28;20185;-72
2021/04/30 02:52:24;;;;;;;21.53;12.33;;;;;;;4.32;100.00;100065.56;4980113;28;20204;-72
2021/04/30 02:54:51;;;;;;;20.43;12.33;;;;;;;4.31;100.00;100069.03;4983144;28;20216;-72
2021/04/30 02:57:17;;;;;;;21.40;12.80;;;;;;;4.32;100.00;100068.13;4983382;28;20685;-72
2021/04/30 02:59:43;;;;;;;18.50;11.80;;;;;;;4.37;100.00;100070.69;4982920;28;20291;-72
2021/04/30 03:02:09;;;;;;;20.30;12.33;;;;;;;4.39;100.00;100076.69;4986900;28;20551;-71
2021/04/30 03:04:35;;;;;;;22.60;12.57;;;;;;;4.41;100.00;100077.53;4987215;28;20288;-72
2021/04/30 03:07:02;;;;;;;19.43;12.27;;;;;;;4.43;100.00;100075.78;4984498;28;20213;-72
2021/04/30 03:09:29;;;;;;;20.30;12.13;;;;;;;4.47;100.00;100079.22;4987145;28;20213;-72
2021/04/30 03:11:55;;;;;;;19.83;12.73;;;;;;;4.47;100.00;100092.97;4982150;28;20201;-72
2021/04/30 03:14:21;;;;;;;19.40;12.57;;;;;;;4.50;99.85;100092.94;4982775;28;20240;-72
2021/04/30 03:16:47;;;;;;;20.40;12.47;;;;;;;4.53;99.85;100085.16;4978838;28;20313;-72
2021/04/30 03:19:13;;;;;;;17.33;11.23;;;;;;;4.55;99.40;100091.16;4982845;28;20617;-72
2021/04/30 03:21:39;;;;;;;18.17;12.03;;;;;;;4.57;99.34;100092.88;4980832;28;20194;-72
2021/04/30 03:24:07;;;;;;;17.47;11.63;;;;;;;4.59;99.54;100088.53;4976917;28;20197;-72
2021/04/30 03:26:33;;;;;;;19.70;12.93;;;;;;;4.59;99.58;100092.00;4981724;28;20232;-72
2021/04/30 03:28:59;;;;;;;20.43;12.17;;;;;;;4.61;99.00;100091.97;4980808;28;20229;-72
2021/04/30 03:31:26;;;;;;;15.70;10.73;;;;;;;4.64;97.97;100099.69;4977891;28;20206;-72
2021/04/30 03:33:52;;;;;;;16.10;11.07;;;;;;;4.66;97.34;100101.41;4982180;28;20208;-72
2021/04/30 03:36:19;;;;;;;15.63;10.63;;;;;;;4.69;97.55;100096.16;4985633;28;20312;-72
2021/04/30 03:38:45;;;;;;;19.43;11.23;;;;;;;4.71;97.36;100098.75;4979275;28;20217;-72
2021/04/30 03:41:12;;;;;;;17.47;11.57;;;;;;;4.72;96.90;100103.06;4983624;28;20593;-72
2021/04/30 03:43:38;;;;;;;15.43;10.50;;;;;;;4.74;97.42;100099.56;4987249;28;20284;-72
2021/04/30 03:46:04;;;;;;;16.07;11.10;;;;;;;4.70;96.56;100110.81;4983924;28;20213;-72
2021/04/30 03:48:31;;;;;;;16.80;10.47;;;;;;;4.70;96.74;100112.53;4989534;28;20569;-72
2021/04/30 03:50:57;;;;;;;16.27;10.37;;;;;;;4.68;96.28;100120.31;4982487;28;20760;-72
2021/04/30 03:53:23;;;;;;;13.07;9.63;;;;;;;4.68;96.44;100114.28;4981962;28;20654;-72
2021/04/30 03:55:50;;;;;;;15.97;10.77;;;;;;;4.67;96.20;100117.72;4982372;28;20221;-72
2021/04/30 03:58:17;;;;;;;15.27;10.83;;;;;;;4.69;95.97;100114.25;4991178;28;20284;-72
2021/04/30 04:00:43;;;;;;;16.77;11.00;;;;;;;4.75;95.04;100118.53;4983448;28;20213;-72
2021/04/30 04:03:09;;;;;;;14.33;10.37;;;;;;;4.76;94.96;100124.53;4986569;28;20605;-72
2021/04/30 04:05:35;;;;;;;17.50;10.90;;;;;;;4.79;95.20;100124.50;4985453;28;20248;-72
2021/04/30 04:08:01;;;;;;;18.40;11.03;;;;;;;4.81;95.20;100135.69;4987102;28;20734;-72
2021/04/30 04:10:28;;;;;;;16.77;10.40;;;;;;;4.82;95.63;100134.78;4980835;28;20198;-72
2021/04/30 04:12:54;;;;;;;19.07;10.27;;;;;;;4.84;95.52;100140.81;4985937;28;20641;-71
2021/04/30 04:15:21;;;;;;;13.37;10.63;;;;;;;4.85;95.21;100147.69;4983140;28;20210;-72
2021/04/30 04:17:48;;;;;;;15.40;10.00;;;;;;;4.89;94.38;100141.59;4981856;28;20820;-73
2021/04/30 04:20:14;;;;;;;15.17;10.97;;;;;;;4.92;94.70;100146.75;4986849;28;20202;-72
2021/04/30 04:22:40;;;;;;;15.30;11.23;;;;;;;4.94;93.68;100150.16;4987898;28;20201;-72
2021/04/30 04:25:07;;;;;;;13.90;10.67;;;;;;;4.96;94.01;100158.78;4979598;28;20194;-72
2021/04/30 04:27:34;;;;;;;17.33;11.43;;;;;;;4.99;94.19;100156.13;4983273;28;20229;-72
2021/04/30 04:30:00;;;;;;;15.00;10.50;;;;;;;4.99;94.04;100148.38;4979470;28;20198;-72
2021/04/30 04:32:27;;;;;;;16.33;10.70;;;;;;;5.04;93.51;100158.69;4984015;28;20230;-72
2021/04/30 04:34:53;;;;;;;14.70;10.63;;;;;;;5.07;93.30;100156.91;4982202;28;20194;-72
2021/04/30 04:37:20;;;;;;;16.30;10.47;;;;;;;5.10;93.85;100164.66;4981415;28;20301;-72
2021/04/30 04:39:46;;;;;;;16.30;11.30;;;;;;;5.12;92.72;100172.38;4979807;28;20202;-72
2021/04/30 04:42:12;;;;;;;14.73;10.60;;;;;;;5.15;92.65;100171.47;4982966;28;20197;-72
2021/04/30 04:44:38;;;;;;;14.23;9.90;;;;;;;5.17;92.53;100165.44;4974195;28;20414;-72
2021/04/30 04:47:04;;;;;;;15.70;10.80;;;;;;;5.18;91.80;100169.72;4983272;28;20218;-72
2021/04/30 04:49:31;;;;;;;14.30;10.03;;;;;;;5.22;91.80;100170.53;4988005;28;20290;-72
2021/04/30 04:51:57;;;;;;;13.97;9.73;;;;;;;5.26;91.80;100167.06;4985114;28;20243;-73
2021/04/30 04:54:24;;;;;;;13.63;10.17;;;;;;;5.30;92.66;100171.31;4977467;28;20201;-72
2021/04/30 04:56:50;;;;;;;15.37;10.50;;;;;;;5.34;92.19;100166.97;4986729;28;20252;-72
2021/04/30 04:59:16;;;;;;;17.83;10.80;;;;;;;5.38;91.99;100177.25;4987197;28;20216;-72
2021/04/30 05:01:42;;;;;;;13.87;10.13;;;;;;;5.41;91.37;100177.19;4979561;28;20198;-72
2021/04/30 05:04:08;;;;;;;17.63;10.33;;;;;;;5.45;91.78;100175.44;4981966;28;20232;-72
2021/04/30 05:06:35;;;;;;;18.87;11.00;;;;;;;5.47;91.44;100182.31;4987172;28;20358;-72
2021/04/30 05:09:00;;;;;;;15.53;10.27;;;;;;;5.52;91.42;100187.41;4981475;28;20189;-72
2021/04/30 05:11:26;;;;;;;15.03;10.43;;;;;;;5.53;89.90;100189.13;4987603;28;20204;-72
2021/04/30 05:13:53;;;;;;;14.93;10.50;;;;;;;5.59;90.34;100190.78;4982878;28;20687;-72
2021/04/30 05:16:19;;;;;;;14.27;9.93;;;;;;;5.60;90.00;100189.91;4982240;28;20225;-72
2021/04/30 05:18:45;;;;;;;14.40;10.30;;;;;;;5.64;90.13;100194.16;4983740;28;20205;-72
2021/04/30 05:21:12;;;;;;;14.60;10.00;;;;;;;5.67;89.65;100191.53;4984298;28;20273;-72
2021/04/30 05:23:40;;;;;;;14.80;10.33;;;;;;;5.71;90.33;100194.94;4982433;28;20239;-72
2021/04/30 05:26:06;;;;;;;16.37;10.93;;;;;;;5.71;89.77;100189.78;4983544;28;20224;-72
2021/04/30 05:28:33;;;;;;;13.80;10.10;;;;;;;5.73;89.04;100206.13;4982303;28;20220;-73
2021/04/30 05:30:59;;;;;;;18.67;10.60;;;;;;;5.75;88.27;100207.84;4977022;28;20209;-72
2021/04/30 05:33:25;;;;;;;15.07;10.80;;;;;;;5.77;87.88;100207.78;4985108;28;20225;-73
2021/04/30 05:35:52;;;;;;;13.00;8.97;;;;;;;5.80;88.06;100207.75;4985686;28;20217;-72
2021/04/30 05:38:18;;;;;;;14.90;10.27;;;;;;;5.81;87.69;100204.31;4976368;28;20221;-72
2021/04/30 05:40:45;;;;;;;13.03;9.47;;;;;;;5.86;88.22;100211.13;4979575;28;20198;-73
2021/04/30 05:43:11;;;;;;;13.83;10.20;;;;;;;5.93;88.52;100211.03;4983691;28;20251;-73
2021/04/30 05:45:39;;;;;;;11.87;9.03;;;;;;;5.94;87.82;100215.34;4974033;28;20236;-73
2021/04/30 05:48:06;;;;;;;13.77;10.13;;;;;;;5.96;88.07;100216.19;4982432;28;20197;-72
2021/04/30 05:50:32;;;;;;;14.43;9.73;;;;;;;5.98;88.14;100217.03;4983569;28;20205;-72
2021/04/30 05:52:58;;;;;;;14.33;10.17;;;;;;;5.99;87.22;100218.75;4980314;28;21000;-72
2021/04/30 05:55:24;;;;;;;15.17;10.67;;;;;;;6.05;87.92;100221.25;4982058;28;20228;-72
2021/04/30 05:57:51;;;;;;;14.03;10.33;;;;;;;6.10;88.54;100223.78;4982314;28;20208;-73
2021/04/30 06:00:18;;;;;;;13.53;9.80;;;;;;;6.12;88.33;100222.91;4978192;28;20193;-71
2021/04/30 06:02:44;;;;;;;15.97;10.93;;;;;;;6.09;86.58;100227.25;4976140;28;20772;-72
2021/04/30 06:05:11;;;;;;;12.50;9.60;;;;;;;6.09;86.93;100230.69;4977134;28;20785;-72
2021/04/30 06:07:37;;;;;;;14.90;10.00;;;;;;;6.14;87.26;100236.66;4980626;28;20280;-72
2021/04/30 06:10:03;;;;;;;15.10;10.43;;;;;;;6.17;87.32;100231.41;4978936;28;20198;-72
2021/04/30 06:12:30;;;;;;;14.40;9.07;;;;;;;6.20;86.78;100235.72;4983307;28;20202;-72
2021/04/30 06:14:56;;;;;;;13.17;10.47;;;;;;;6.27;87.07;100245.09;4987328;28;20712;-73
2021/04/30 06:17:24;;;;;;;17.20;10.43;;;;;;;6.27;86.09;100252.88;4985925;28;20239;-72
2021/04/30 06:19:50;;;;;;;15.83;10.20;;;;;;;6.28;85.80;100254.59;4975752;28;20582;-72
2021/04/30 06:22:16;;;;;;;14.77;9.73;;;;;;;6.31;85.92;100248.50;4984749;28;20190;-72
2021/04/30 06:24:42;;;;;;;14.33;9.60;;;;;;;6.35;85.63;100250.16;4979525;28;20197;-73
2021/04/30 06:27:09;;;;;;;13.93;10.17;;;;;;;6.40;86.66;100258.72;4979985;28;20221;-72
2021/04/30 06:29:34;;;;;;;14.57;10.63;;;;;;;6.46;85.93;100262.97;4975479;28;20209;-72
2021/04/30 06:32:02;;;;;;;14.67;11.13;;;;;;;6.48;85.45;100266.38;4978837;28;20768;-73
2021/04/30 06:34:28;;;;;;;14.50;10.63;;;;;;;6.47;84.55;100270.69;4965711;28;20278;-72
2021/04/30 06:36:54;;;;;;;17.33;10.53;;;;;;;6.52;85.08;100271.47;4973437;28;20224;-72
2021/04/30 06:39:20;;;;;;;14.27;10.27;;;;;;;6.63;84.96;100271.31;4977510;28;20206;-72
2021/04/30 06:41:46;;;;;;;14.07;10.23;;;;;;;6.74;86.10;100271.16;4982398;28;20745;-72
2021/04/30 06:44:13;;;;;;;13.13;9.83;;;;;;;6.75;84.57;100278.91;4977746;28;20210;-72
2021/04/30 06:46:39;;;;;;;14.30;10.27;;;;;;;6.83;85.29;100278.78;4977955;28;20209;-72
2021/04/30 06:49:06;;;;;;;17.47;11.00;;;;;;;6.87;84.20;100272.66;4977169;28;20216;-73
2021/04/30 06:51:32;;;;;;;15.30;11.27;;;;;;;6.93;83.76;100285.53;4980093;28;20202;-72
2021/04/30 06:54:00;;;;;;;13.53;10.77;;;;;;;7.05;84.81;100281.88;4978926;28;20238;-72
2021/04/30 06:56:27;;;;;;;14.77;10.90;;;;;;;7.16;82.99;100289.47;4979171;28;20279;-72
2021/04/30 06:58:53;;;;;;;15.03;10.70;;;;;;;7.23;83.54;100291.09;4977392;28;20202;-73
2021/04/30 07:01:19;;;;;;;12.87;9.97;;;;;;;7.25;82.30;100289.31;4977095;28;20221;-73
2021/04/30 07:03:46;;;;;;;15.73;11.20;;;;;;;7.32;82.42;100293.50;4981026;28;20638;-72
2021/04/30 07:06:13;;;;;;;13.00;9.83;;;;;;;7.45;81.86;100296.72;4982134;28;20295;-73
2021/04/30 07:08:39;;;;;;;15.10;10.43;;;;;;;7.52;80.93;100294.88;4983927;28;20211;-73
2021/04/30 07:11:07;;;;;;;13.50;9.80;;;;;;;7.57;81.04;100301.69;4981244;28;20197;-72
2021/04/30 07:13:35;;;;;;;15.00;10.53;;;;;;;7.58;81.31;100306.00;4981506;28;20287;-73
2021/04/30 07:16:01;;;;;;;12.53;9.87;;;;;;;7.65;81.26;100305.88;4984276;28;20216;-72
2021/04/30 07:18:27;;;;;;;13.53;10.47;;;;;;;7.84;82.08;100301.19;4978353;28;20216;-72
2021/04/30 07:20:53;;;;;;;16.00;11.10;;;;;;;8.00;80.90;100306.91;4984088;28;20205;-73
2021/04/30 07:23:20;;;;;;;16.23;10.77;;;;;;;8.07;80.79;100305.91;4972067;28;20195;-73
2021/04/30 07:25:46;;;;;;;14.33;10.63;;;;;;;8.15;80.04;100314.38;4979541;28;20618;-73
2021/04/30 07:28:12;;;;;;;13.50;10.40;;;;;;;8.27;80.03;100321.91;4984727;28;20285;-72
2021/04/30 07:30:38;;;;;;;15.50;10.53;;;;;;;8.33;79.35;100326.13;4981935;28;20213;-73
2021/04/30 07:33:04;;;;;;;16.30;10.80;;;;;;;8.49;78.97;100332.72;4981261;28;20198;-73
2021/04/30 07:35:30;;;;;;;14.07;10.50;;;;;;;8.58;79.28;100330.81;4981676;28;20280;-72
2021/04/30 07:37:56;;;;;;;14.67;10.57;;;;;;;8.51;77.18;100343.97;4982535;28;20204;-72
2021/04/30 07:40:23;;;;;;;14.60;10.97;;;;;;;8.61;78.38;100342.00;4983572;28;20269;-72
2021/04/30 07:42:49;;;;;;;15.17;12.33;;;;;;;8.73;78.45;100342.63;4977841;28;20747;-72
2021/04/30 07:45:15;;;;;;;29.63;20.30;;;;;;;8.71;76.98;100350.44;4977940;28;20205;-73
2021/04/30 07:47:41;;;;;;;18.13;14.50;;;;;;;8.82;77.84;100338.03;4980397;28;20310;-72
2021/04/30 07:50:08;;;;;;;12.87;10.40;;;;;;;8.99;76.71;100334.19;4984561;28;20202;-73
2021/04/30 07:52:34;;;;;;;13.40;10.17;;;;;;;9.03;76.73;100333.22;4982382;28;20941;-72
2021/04/30 07:55:01;;;;;;;14.57;10.43;;;;;;;9.12;76.69;100348.59;4979770;28;20535;-73
2021/04/30 07:57:28;;;;;;;11.97;9.47;;;;;;;9.22;77.53;100344.03;4978007;28;20242;-72
2021/04/30 07:59:54;;;;;;;12.23;10.57;;;;;;;9.31;75.98;100350.78;4982230;28;20215;-73
2021/04/30 08:02:20;;;;;;;14.70;10.63;;;;;;;9.22;75.86;100351.84;4980958;28;20273;-72
2021/04/30 08:04:47;;;;;;;13.63;10.23;;;;;;;9.23;75.42;100353.53;4981441;28;20232;-72
2021/04/30 08:07:13;;;;;;;13.37;10.10;;;;;;;9.19;74.46;100359.72;4981549;28;20211;-72
2021/04/30 08:09:39;;;;;;;12.33;9.90;;;;;;;9.17;76.43;100353.72;4976185;28;20878;-73
2021/04/30 08:12:05;;;;;;;12.10;9.23;;;;;;;9.14;76.36;100359.81;4982839;28;20196;-73
2021/04/30 08:14:32;;;;;;;14.00;10.30;;;;;;;9.07;75.83;100366.91;4981464;28;20228;-73
2021/04/30 08:16:58;;;;;;;12.90;10.27;;;;;;;9.00;75.09;100364.50;4980987;28;20322;-72
2021/04/30 08:19:25;;;;;;;12.83;10.70;;;;;;;9.06;76.27;100369.56;4981413;28;20208;-73
2021/04/30 08:21:51;;;;;;;13.90;10.00;;;;;;;9.20;77.66;100370.09;4981630;28;20256;-73
2021/04/30 08:24:18;;;;;;;13.80;10.47;;;;;;;9.27;75.88;100366.44;4977868;28;20212;-73
2021/04/30 08:26:44;;;;;;;12.63;10.50;;;;;;;9.43;75.22;100376.47;4978019;28;20227;-72
2021/04/30 08:29:11;;;;;;;13.40;10.23;;;;;;;9.68;75.02;100379.28;4978544;28;20212;-73
2021/04/30 08:31:38;;;;;;;13.60;10.50;;;;;;;9.87;75.47;100374.44;4982437;28;20212;-73
2021/04/30 08:34:04;;;;;;;12.40;10.40;;;;;;;9.97;74.81;100375.03;4980433;28;20201;-72
2021/04/30 08:36:30;;;;;;;13.20;9.70;;;;;;;10.17;74.95;100377.94;4983485;28;20701;-72
2021/04/30 08:38:56;;;;;;;11.50;9.73;;;;;;;10.22;73.81;100386.50;4982802;28;20208;-72
2021/04/30 08:41:25;;;;;;;16.47;10.73;;;;;;;10.17;72.39;100385.75;4983478;28;20215;-72
2021/04/30 08:43:52;;;;;;;13.90;10.70;;;;;;;10.13;73.48;100386.75;4979575;28;20183;-72
2021/04/30 08:46:18;;;;;;;12.27;9.63;;;;;;;9.97;72.72;100390.66;4980213;28;20276;-72
2021/04/30 08:48:45;;;;;;;13.43;10.03;;;;;;;10.11;73.55;100388.53;4986414;28;20192;-72
2021/04/30 08:51:12;;;;;;;18.73;14.20;;;;;;;10.18;73.39;100392.69;4978348;28;20197;-72
2021/04/30 08:53:39;;;;;;;14.43;12.17;;;;;;;10.31;73.22;100389.75;4978246;28;20851;-72
2021/04/30 08:56:05;;;;;;;14.73;11.10;;;;;;;10.41;74.55;100384.25;4984788;28;20661;-72
2021/04/30 08:58:34;;;;;;;12.60;9.60;;;;;;;10.55;71.86;100388.19;4985014;28;20296;-72
2021/04/30 09:01:00;;;;;;;12.43;10.07;;;;;;;10.81;73.42;100390.00;4984188;28;20252;-72
2021/04/30 09:03:27;;;;;;;10.97;9.33;;;;;;;11.26;74.29;100394.69;4987293;28;20205;-72
2021/04/30 09:05:56;;;;;;;17.30;10.83;;;;;;;11.52;72.57;100396.44;4982548;28;20285;-72
2021/04/30 09:08:22;;;;;;;13.20;9.20;;;;;;;11.64;70.35;100394.28;4974889;28;20359;-72
2021/04/30 09:10:49;;;;;;;10.27;8.03;;;;;;;11.77;68.92;100397.31;4979541;28;20220;-72
2021/04/30 09:13:18;;;;;;;11.17;7.70;;;;;;;11.35;66.77;100409.19;4981001;28;20693;-72
2021/04/30 09:15:46;;;;;;;9.67;7.70;;;;;;;11.11;67.89;100400.38;4984342;28;20283;-72
2021/04/30 09:18:17;;;;;;;9.83;8.23;;;;;;;10.88;67.67;100409.78;4979185;28;20195;-72
2021/04/30 09:20:44;;;;;;;12.33;8.60;;;;;;;10.88;70.21;100391.53;4978732;28;20705;-72
2021/04/30 09:23:35;;;;;;;11.07;8.57;;;;;;;10.71;69.57;100392.06;4977137;28;20209;-72
2021/04/30 09:26:02;;;;;;;9.07;7.57;;;;;;;10.60;69.87;100401.94;4981727;28;20216;-72
2021/04/30 09:28:28;;;;;;;9.93;8.03;;;;;;;10.43;71.75;100392.03;4983674;28;20885;-72
2021/04/30 09:30:54;;;;;;;10.27;8.20;;;;;;;10.32;71.92;100394.91;4979182;28;20586;-72
2021/04/30 09:33:21;;;;;;;9.33;7.70;;;;;;;10.22;71.45;100396.91;4982832;28;20210;-72
2021/04/30 09:35:48;;;;;;;9.83;7.37;;;;;;;10.06;70.73;100408.66;4982370;28;20721;-72
2021/04/30 09:38:33;;;;;;;12.43;7.50;;;;;;;9.79;70.94;100410.25;4976893;28;20203;-72
2021/04/30 09:41:09;;;;;;;12.57;7.73;;;;;;;9.68;70.57;100407.09;4975518;28;20209;-72
2021/04/30 09:43:43;;;;;;;8.83;6.70;;;;;;;9.63;72.62;100400.22;4983676;28;20251;-72
2021/04/30 09:46:26;;;;;;;8.87;7.37;;;;;;;9.57;72.79;100397.78;4963529;28;20222;-72
2021/04/30 09:48:58;;;;;;;11.70;8.33;;;;;;;9.46;72.66;100402.41;4986745;28;20197;-72
2021/04/30 09:51:41;;;;;;;8.97;7.47;;;;;;;9.37;73.15;100408.69;4964345;28;20210;-72
2021/04/30 09:54:19;;;;;;;11.10;7.40;;;;;;;9.32;73.69;100409.69;4983080;28;20421;-72
2021/04/30 09:56:47;;;;;;;8.63;6.90;;;;;;;9.26;73.51;100411.56;4977275;28;20315;-72
2021/04/30 09:59:25;;;;;;;10.03;8.33;;;;;;;9.18;73.69;100413.50;4982792;28;20210;-72
2021/04/30 10:02:05;;;;;;;10.10;7.87;;;;;;;9.14;74.54;100409.25;4979132;28;20252;-72
2021/04/30 10:04:34;;;;;;;9.97;7.57;;;;;;;9.10;75.04;100416.25;4979406;28;20215;-72
2021/04/30 10:07:00;;;;;;;9.37;7.33;;;;;;;9.03;75.77;100419.91;4981542;28;20222;-72
2021/04/30 10:09:27;;;;;;;12.97;8.23;;;;;;;8.94;75.97;100427.06;4984815;28;20204;-72
2021/04/30 10:11:54;;;;;;;11.20;8.57;;;;;;;8.90;75.35;100437.53;4982525;28;20201;-72
2021/04/30 10:14:21;;;;;;;12.33;8.83;;;;;;;8.81;75.38;100442.94;4976271;28;20202;-72
2021/04/30 10:16:47;;;;;;;11.00;7.93;;;;;;;8.81;77.17;100447.25;4982544;28;20228;-72
2021/04/30 10:19:13;;;;;;;11.33;8.53;;;;;;;8.81;77.22;100449.88;4979453;28;20278;-72
2021/04/30 10:21:41;;;;;;;12.10;9.20;;;;;;;8.78;76.44;100443.00;4981539;28;20199;-72
2021/04/30 10:24:12;;;;;;;12.30;8.60;;;;;;;8.79;76.89;100431.69;4980634;28;20210;-72
2021/04/30 10:26:38;;;;;;;11.23;8.80;;;;;;;8.79;76.98;100428.25;4977932;28;20896;-72
2021/04/30 10:29:08;;;;;;;12.73;9.20;;;;;;;8.86;75.99;100432.41;4980906;28;20211;-72
2021/04/30 10:31:37;;;;;;;12.63;8.73;;;;;;;8.98;77.50;100441.69;4975349;28;20289;-72
2021/04/30 10:34:08;;;;;;;13.20;9.40;;;;;;;8.96;75.78;100448.69;4974918;28;20550;-72
2021/04/30 10:36:38;;;;;;;11.63;9.47;;;;;;;9.01;77.37;100437.28;4987049;28;20672;-72
2021/04/30 10:39:05;;;;;;;13.70;10.10;;;;;;;9.03;76.47;100445.91;4974865;28;20201;-72
2021/04/30 10:41:33;;;;;;;10.60;8.77;;;;;;;9.03;77.25;100443.31;4983337;28;20218;-72
2021/04/30 10:44:14;;;;;;;12.13;8.87;;;;;;;9.02;77.01;100451.13;4978464;28;20208;-72
2021/04/30 10:46:40;;;;;;;11.27;9.07;;;;;;;9.03;76.99;100456.31;4981561;28;20229;-72
2021/04/30 10:49:18;;;;;;;12.60;9.23;;;;;;;9.03;77.32;100452.88;4978702;28;20202;-72
2021/04/30 10:52:18;;;;;;;11.67;8.27;;;;;;;9.06;77.21;100443.25;4968777;28;20206;-72
2021/04/30 10:54:46;;;;;;;10.87;8.20;;;;;;;9.07;77.68;100450.13;4974882;28;20203;-72
2021/04/30 10:57:14;;;;;;;10.90;7.80;;;;;;;9.08;77.84;100446.66;4978114;28;20701;-72
2021/04/30 10:59:45;;;;;;;10.83;7.67;;;;;;;9.08;76.87;100453.63;4974859;28;20696;-72
2021/04/30 11:02:18;;;;;;;12.17;7.90;;;;;;;9.07;77.52;100459.69;4978144;28;20213;-72
2021/04/30 11:05:09;;;;;;;12.70;8.53;;;;;;;9.11;77.42;100456.13;4976389;28;20793;-71
2021/04/30 11:07:38;;;;;;;11.73;9.03;;;;;;;9.18;77.17;100454.25;4975508;28;20291;-71
2021/04/30 11:10:34;;;;;;;12.33;8.80;;;;;;;9.25;78.00;100448.88;4978625;28;20203;-71
2021/04/30 11:13:01;;;;;;;10.80;8.37;;;;;;;9.27;77.33;100454.91;4983697;28;20199;-71
2021/04/30 11:15:31;;;;;;;12.00;8.97;;;;;;;9.29;76.44;100452.25;4989264;28;20271;-71
2021/04/30 11:18:00;;;;;;;10.43;8.33;;;;;;;9.34;76.06;100447.81;4978995;28;20209;-71